Time;durP1;ratioP1;P1;durP2;ratioP2;P2;SDS_P1;SDS_P2;PMS_P1;PMS_P2;Temp;Humidity;BMP_temperature;BMP_pressure;BME280_temperature;BME280_humidity;BME280_pressure;Samples;Min_cycle;Max_cycle;Signal;HPM_P1;HPM_P2
2021/07/15 00:00:25;;;;;;;1.20;1.00;;;20.20;99.90;;;;;;5070557;28;20199;-75
2021/07/15 00:02:52;;;;;;;1.45;1.35;;;20.20;99.90;;;;;;5070756;28;20210;-74
2021/07/15 00:05:19;;;;;;;1.10;0.80;;;20.20;99.90;;;;;;5070962;28;20238;-75
2021/07/15 00:07:47;;;;;;;1.00;0.90;;;20.20;99.90;;;;;;5072397;28;20217;-75
2021/07/15 00:10:19;;;;;;;1.10;0.70;;;20.20;99.90;;;;;;5072269;28;20199;-76
2021/07/15 00:12:47;;;;;;;1.35;1.25;;;20.10;99.90;;;;;;5072870;28;20195;-76
2021/07/15 00:15:16;;;;;;;1.52;0.90;;;20.20;99.90;;;;;;5072557;28;20191;-76
2021/07/15 00:17:42;;;;;;;1.10;0.85;;;20.10;99.90;;;;;;5072918;28;20264;-76
2021/07/15 00:20:12;;;;;;;2.50;1.05;;;20.20;99.90;;;;;;5072593;28;20193;-76
2021/07/15 00:22:39;;;;;;;2.70;1.10;;;20.10;99.90;;;;;;5073229;28;20194;-76
2021/07/15 00:25:10;;;;;;;1.00;0.80;;;20.10;99.90;;;;;;5072200;28;20211;-76
2021/07/15 00:27:37;;;;;;;1.20;0.90;;;20.10;99.90;;;;;;5068806;28;20222;-76
2021/07/15 00:30:05;;;;;;;1.20;0.82;;;20.10;99.90;;;;;;5063568;28;20210;-76
2021/07/15 00:32:31;;;;;;;2.00;0.93;;;20.10;99.90;;;;;;5071902;28;20201;-76
2021/07/15 00:34:59;;;;;;;1.33;1.00;;;20.10;99.90;;;;;;5072034;28;20195;-75
2021/07/15 00:37:26;;;;;;;1.67;1.20;;;20.10;99.90;;;;;;5073379;28;20211;-75
2021/07/15 00:39:53;;;;;;;1.15;0.77;;;20.10;99.90;;;;;;5072653;28;20203;-76
2021/07/15 00:42:21;;;;;;;2.35;1.20;;;20.10;99.90;;;;;;5073175;28;20229;-74
2021/07/15 00:44:47;;;;;;;2.25;0.85;;;20.10;99.90;;;;;;5071185;28;20226;-75
2021/07/15 00:47:14;;;;;;;2.85;1.00;;;20.10;99.90;;;;;;5073519;28;20194;-75
2021/07/15 00:49:41;;;;;;;1.20;1.02;;;20.10;99.90;;;;;;5072884;28;20199;-75
2021/07/15 00:52:11;;;;;;;2.47;1.33;;;20.00;99.90;;;;;;5073156;28;20191;-75
2021/07/15 00:54:39;;;;;;;1.13;0.95;;;20.00;99.90;;;;;;5072836;28;20725;-75
2021/07/15 00:57:06;;;;;;;1.25;0.90;;;20.00;99.90;;;;;;5073045;28;20229;-75
2021/07/15 00:59:35;;;;;;;1.20;0.90;;;20.00;99.90;;;;;;5073199;28;20202;-75
2021/07/15 01:02:03;;;;;;;2.15;1.70;;;20.00;99.90;;;;;;5072435;28;20195;-75
2021/07/15 01:04:30;;;;;;;1.10;1.00;;;20.00;99.90;;;;;;5072064;28;20233;-76
2021/07/15 01:06:57;;;;;;;1.10;0.95;;;20.00;99.90;;;;;;5071966;28;20285;-75
2021/07/15 01:09:24;;;;;;;2.85;1.02;;;20.00;99.90;;;;;;5071676;28;20636;-75
2021/07/15 01:11:59;;;;;;;1.65;1.00;;;20.00;99.90;;;;;;5070775;28;20191;-75
2021/07/15 01:14:29;;;;;;;1.55;0.98;;;20.00;99.90;;;;;;5070397;28;20189;-76
2021/07/15 01:17:03;;;;;;;1.20;1.08;;;20.00;99.90;;;;;;5069467;28;20969;-76
2021/07/15 01:20:09;;;;;;;1.38;1.20;;;20.00;99.90;;;;;;5070179;28;20210;-76
2021/07/15 01:22:39;;;;;;;1.02;0.90;;;20.00;99.90;;;;;;5069939;28;20202;-76
2021/07/15 01:25:33;;;;;;;2.00;1.23;;;20.00;99.90;;;;;;5071459;28;20551;-76
2021/07/15 01:28:06;;;;;;;1.38;1.10;;;20.00;99.90;;;;;;5071965;28;20209;-76
2021/07/15 01:30:37;;;;;;;1.48;1.00;;;19.90;99.90;;;;;;5070801;28;20199;-76
2021/07/15 01:33:08;;;;;;;1.20;1.05;;;20.00;99.90;;;;;;5071575;28;20198;-76
2021/07/15 01:35:42;;;;;;;1.40;0.90;;;19.90;99.90;;;;;;5073032;28;20630;-76
2021/07/15 01:38:10;;;;;;;1.10;0.73;;;19.90;99.90;;;;;;5072200;28;20194;-76
2021/07/15 01:40:45;;;;;;;1.20;1.10;;;19.90;99.90;;;;;;5072129;28;20222;-76
2021/07/15 01:43:19;;;;;;;1.30;1.10;;;19.90;99.90;;;;;;5072915;28;20264;-76
2021/07/15 01:45:47;;;;;;;1.70;1.50;;;19.90;99.90;;;;;;5074197;28;20217;-76
2021/07/15 01:48:15;;;;;;;1.40;1.10;;;19.90;99.90;;;;;;5076747;28;20369;-76
2021/07/15 01:50:42;;;;;;;1.35;1.00;;;19.90;99.90;;;;;;5076536;28;20672;-76
2021/07/15 01:53:09;;;;;;;1.25;0.88;;;19.90;99.90;;;;;;5076588;28;20206;-76
2021/07/15 01:55:38;;;;;;;1.13;1.02;;;19.80;99.90;;;;;;5075886;28;20191;-76
2021/07/15 01:58:07;;;;;;;1.33;1.00;;;19.90;99.90;;;;;;5076136;28;20237;-75
2021/07/15 02:00:35;;;;;;;1.10;0.80;;;19.90;99.90;;;;;;5075974;28;20201;-76
2021/07/15 02:03:06;;;;;;;1.50;1.00;;;19.90;99.90;;;;;;5075625;28;20201;-76
2021/07/15 02:05:34;;;;;;;1.90;1.10;;;19.90;99.90;;;;;;5075484;28;20226;-75
2021/07/15 02:08:02;;;;;;;1.27;1.02;;;19.80;99.90;;;;;;5074920;28;20198;-75
2021/07/15 02:10:29;;;;;;;1.52;1.38;;;19.80;99.90;;;;;;5075073;28;20284;-76
2021/07/15 02:12:58;;;;;;;1.40;1.10;;;19.80;99.90;;;;;;5075462;28;20206;-76
2021/07/15 02:15:27;;;;;;;1.85;0.95;;;19.80;99.90;;;;;;5074591;28;20214;-75
2021/07/15 02:17:55;;;;;;;1.55;0.90;;;19.80;99.90;;;;;;5074676;28;20206;-76
2021/07/15 02:20:25;;;;;;;1.77;1.00;;;19.80;99.90;;;;;;5074708;28;20210;-75
2021/07/15 02:22:55;;;;;;;1.10;0.98;;;19.90;99.90;;;;;;5074448;28;20209;-75
2021/07/15 02:25:23;;;;;;;1.52;1.00;;;19.80;99.90;;;;;;5074171;28;20293;-75
2021/07/15 02:27:52;;;;;;;1.35;0.85;;;19.80;99.90;;;;;;5074542;28;20227;-75
2021/07/15 02:30:19;;;;;;;1.00;0.70;;;19.80;99.90;;;;;;5054906;28;20590;-75
2021/07/15 02:32:50;;;;;;;1.30;1.08;;;19.80;99.90;;;;;;5067967;28;20195;-75
2021/07/15 02:35:19;;;;;;;1.38;0.93;;;19.80;99.90;;;;;;5074735;28;20195;-76
2021/07/15 02:37:49;;;;;;;1.42;1.20;;;19.80;99.90;;;;;;5075801;28;20222;-75
2021/07/15 02:40:18;;;;;;;1.23;1.13;;;19.80;99.90;;;;;;5074608;28;20187;-75
2021/07/15 02:42:46;;;;;;;1.95;0.90;;;19.80;99.90;;;;;;5074607;28;20198;-75
2021/07/15 02:45:15;;;;;;;1.33;1.10;;;19.80;99.90;;;;;;5075065;28;20215;-75
2021/07/15 02:47:44;;;;;;;2.22;1.13;;;19.80;99.90;;;;;;5075292;28;20252;-75
2021/07/15 02:50:12;;;;;;;1.23;1.13;;;19.80;99.90;;;;;;5075053;28;20199;-74
2021/07/15 02:52:39;;;;;;;1.10;1.00;;;19.80;99.90;;;;;;5075045;28;20210;-74
2021/07/15 02:55:09;;;;;;;2.05;0.98;;;19.80;99.90;;;;;;5072033;28;20190;-75
2021/07/15 02:57:43;;;;;;;2.10;1.17;;;19.80;99.90;;;;;;5071821;28;20229;-75
2021/07/15 03:00:12;;;;;;;1.20;1.10;;;19.80;99.90;;;;;;5074314;28;20792;-75
2021/07/15 03:02:46;;;;;;;1.55;0.93;;;19.70;99.90;;;;;;5071149;28;20541;-76
2021/07/15 03:05:15;;;;;;;1.30;0.90;;;19.70;99.90;;;;;;5074807;28;20210;-75
2021/07/15 03:07:47;;;;;;;1.65;1.50;;;19.70;99.90;;;;;;5074018;28;20660;-76
2021/07/15 03:10:16;;;;;;;1.20;0.90;;;19.70;99.90;;;;;;5073714;28;20548;-75
2021/07/15 03:12:44;;;;;;;2.05;1.27;;;19.70;99.90;;;;;;5073868;28;20820;-76
2021/07/15 03:15:12;;;;;;;1.30;1.10;;;19.70;99.90;;;;;;5072933;28;20198;-75
2021/07/15 03:17:45;;;;;;;1.13;0.90;;;19.70;99.90;;;;;;5073618;28;20206;-75
2021/07/15 03:20:15;;;;;;;1.33;1.00;;;19.70;99.90;;;;;;5073377;28;20206;-75
2021/07/15 03:22:45;;;;;;;1.30;1.17;;;19.70;99.90;;;;;;5073367;28;20195;-75
2021/07/15 03:25:16;;;;;;;2.15;1.33;;;19.70;99.90;;;;;;5061019;28;20680;-74
2021/07/15 03:27:46;;;;;;;1.20;1.10;;;19.70;99.90;;;;;;5073848;28;20373;-75
2021/07/15 03:30:15;;;;;;;1.35;0.80;;;19.70;99.90;;;;;;5073177;28;20198;-74
2021/07/15 03:32:43;;;;;;;1.65;0.90;;;19.70;99.90;;;;;;5073192;28;20206;-75
2021/07/15 03:35:11;;;;;;;1.33;1.17;;;19.70;99.90;;;;;;5073426;28;20198;-74
2021/07/15 03:37:41;;;;;;;1.35;1.10;;;19.70;99.90;;;;;;5073837;28;20249;-75
2021/07/15 03:40:09;;;;;;;1.30;1.10;;;19.70;99.90;;;;;;5072977;28;20202;-75
2021/07/15 03:42:38;;;;;;;1.30;1.00;;;19.70;99.90;;;;;;5073862;28;20545;-74
2021/07/15 03:45:06;;;;;;;1.95;1.10;;;19.70;99.90;;;;;;5073715;28;20206;-74
2021/07/15 03:47:34;;;;;;;2.85;1.20;;;19.70;99.90;;;;;;5074594;28;20198;-74
2021/07/15 03:50:02;;;;;;;1.55;1.10;;;19.70;99.90;;;;;;5073721;28;20198;-75
2021/07/15 03:52:29;;;;;;;1.33;1.00;;;19.60;99.90;;;;;;5070786;28;20580;-75
2021/07/15 03:54:57;;;;;;;9.13;2.20;;;19.70;99.90;;;;;;5070319;28;20194;-74
2021/07/15 03:57:28;;;;;;;1.38;1.10;;;19.60;99.90;;;;;;5072036;28;20203;-74
2021/07/15 03:59:57;;;;;;;1.40;1.05;;;19.60;99.90;;;;;;5071188;28;20191;-75
2021/07/15 04:02:26;;;;;;;1.25;1.00;;;19.60;99.90;;;;;;5071569;28;20202;-75
2021/07/15 04:04:55;;;;;;;2.08;1.17;;;19.60;99.90;;;;;;5070811;28;20193;-74
2021/07/15 04:07:26;;;;;;;2.10;1.17;;;19.60;99.90;;;;;;5072625;28;20195;-75
2021/07/15 04:09:53;;;;;;;1.17;1.00;;;19.60;99.90;;;;;;5072180;28;20552;-75
2021/07/15 04:12:23;;;;;;;1.10;0.90;;;19.60;99.90;;;;;;5072680;28;20198;-75
2021/07/15 04:15:09;;;;;;;1.20;1.00;;;19.60;99.90;;;;;;5072457;28;20214;-75
2021/07/15 04:17:42;;;;;;;1.10;0.98;;;19.60;99.90;;;;;;5072586;28;20190;-75
2021/07/15 04:20:12;;;;;;;1.15;0.95;;;19.60;99.90;;;;;;5071942;28;20223;-75
2021/07/15 04:22:40;;;;;;;1.30;1.05;;;19.60;99.90;;;;;;5072524;28;20309;-75
2021/07/15 04:25:10;;;;;;;1.27;1.15;;;19.60;99.90;;;;;;5072484;28;20225;-75
2021/07/15 04:27:37;;;;;;;2.40;1.10;;;19.60;99.90;;;;;;5072517;28;20194;-75
2021/07/15 04:30:08;;;;;;;1.50;0.95;;;19.60;99.90;;;;;;5072482;28;20201;-76
2021/07/15 04:32:39;;;;;;;1.65;1.20;;;19.60;99.90;;;;;;5070926;28;20195;-75
2021/07/15 04:35:08;;;;;;;1.25;0.90;;;19.50;99.90;;;;;;5072554;28;20187;-75
2021/07/15 04:37:37;;;;;;;1.65;1.10;;;19.60;99.90;;;;;;5073364;28;20225;-75
2021/07/15 04:40:06;;;;;;;1.83;1.73;;;19.60;99.90;;;;;;5072833;28;20229;-75
2021/07/15 04:42:34;;;;;;;1.55;1.45;;;19.60;99.90;;;;;;5073286;28;20233;-75
2021/07/15 04:45:02;;;;;;;1.52;1.42;;;19.60;99.90;;;;;;5072649;28;20225;-76
2021/07/15 04:47:32;;;;;;;1.10;0.90;;;19.50;99.90;;;;;;5070952;28;20290;-75
2021/07/15 04:49:59;;;;;;;1.75;1.40;;;19.50;99.90;;;;;;5072535;28;20608;-75
2021/07/15 04:52:28;;;;;;;2.45;1.35;;;19.60;99.90;;;;;;5073221;28;20199;-76
2021/07/15 04:54:57;;;;;;;1.35;1.00;;;19.60;99.90;;;;;;5072891;28;20237;-76
2021/07/15 04:57:24;;;;;;;1.23;1.00;;;19.60;99.90;;;;;;5072817;28;20210;-75
2021/07/15 04:59:51;;;;;;;1.20;1.00;;;19.60;99.90;;;;;;5072368;28;20260;-75
2021/07/15 05:02:21;;;;;;;1.20;1.10;;;19.60;99.90;;;;;;5073183;28;20206;-75
2021/07/15 05:04:49;;;;;;;1.15;0.90;;;19.60;99.90;;;;;;5072992;28;20210;-75
2021/07/15 05:07:16;;;;;;;1.20;1.08;;;19.60;99.90;;;;;;5072394;28;20222;-75
2021/07/15 05:09:42;;;;;;;1.50;0.95;;;19.70;99.90;;;;;;5072506;28;20198;-76
2021/07/15 05:12:10;;;;;;;2.25;1.15;;;19.60;99.90;;;;;;5072949;28;20199;-75
2021/07/15 05:14:41;;;;;;;1.70;1.00;;;19.60;99.90;;;;;;5073204;28;20542;-75
2021/07/15 05:17:08;;;;;;;2.40;1.30;;;19.60;99.90;;;;;;5072702;28;20305;-77
2021/07/15 05:19:34;;;;;;;2.90;1.50;;;19.60;99.90;;;;;;5071909;28;20210;-75
2021/07/15 05:22:03;;;;;;;2.15;1.05;;;19.60;99.90;;;;;;5070940;28;20210;-75
2021/07/15 05:24:30;;;;;;;1.77;1.30;;;19.50;99.90;;;;;;5071199;28;20561;-76
2021/07/15 05:26:56;;;;;;;1.65;1.30;;;19.50;99.90;;;;;;5071626;28;20222;-76
2021/07/15 05:29:23;;;;;;;1.63;1.30;;;19.60;99.90;;;;;;5063208;28;20217;-75
2021/07/15 05:31:50;;;;;;;6.43;1.52;;;19.60;99.90;;;;;;5071258;28;20203;-76
2021/07/15 05:34:19;;;;;;;1.80;1.05;;;19.60;99.90;;;;;;5070777;28;20198;-75
2021/07/15 05:36:46;;;;;;;2.67;1.30;;;19.60;99.90;;;;;;5070820;28;20267;-77
2021/07/15 05:39:14;;;;;;;2.75;1.20;;;19.60;99.90;;;;;;5070923;28;20221;-76
2021/07/15 05:41:41;;;;;;;1.30;1.08;;;19.70;99.90;;;;;;5070860;28;20569;-76
2021/07/15 05:44:08;;;;;;;1.30;1.10;;;19.80;99.90;;;;;;5071163;28;20198;-75
2021/07/15 05:46:35;;;;;;;1.23;1.13;;;19.90;99.90;;;;;;5051097;28;20219;-76
2021/07/15 05:49:01;;;;;;;1.95;1.00;;;20.00;99.90;;;;;;5066628;28;20264;-76
2021/07/15 05:51:28;;;;;;;1.33;1.20;;;20.00;99.90;;;;;;5072461;28;20229;-75
2021/07/15 05:53:55;;;;;;;1.30;1.10;;;20.00;99.90;;;;;;5072068;28;20187;-76
2021/07/15 05:56:23;;;;;;;1.50;1.17;;;20.10;99.90;;;;;;5072081;28;20198;-76
2021/07/15 05:58:49;;;;;;;1.20;1.10;;;20.00;99.90;;;;;;5071898;28;20202;-75
2021/07/15 06:01:16;;;;;;;2.35;1.25;;;20.10;99.90;;;;;;5072414;28;20273;-75
2021/07/15 06:03:43;;;;;;;1.45;1.00;;;20.00;99.90;;;;;;5071977;28;20199;-75
2021/07/15 06:06:09;;;;;;;1.33;1.13;;;20.00;99.90;;;;;;5072336;28;20215;-75
2021/07/15 06:08:36;;;;;;;3.63;1.30;;;20.00;99.90;;;;;;5071839;28;20186;-75
2021/07/15 06:11:03;;;;;;;1.23;1.13;;;20.00;99.90;;;;;;5072027;28;20202;-76
2021/07/15 06:13:31;;;;;;;2.47;1.33;;;20.00;99.90;;;;;;5071942;28;20195;-76
2021/07/15 06:15:58;;;;;;;1.30;1.00;;;20.00;99.90;;;;;;5071966;28;20630;-75
2021/07/15 06:18:24;;;;;;;1.40;0.95;;;20.00;99.90;;;;;;5071733;28;20202;-76
2021/07/15 06:20:51;;;;;;;1.15;1.00;;;20.00;99.90;;;;;;5071473;28;20187;-75
2021/07/15 06:23:18;;;;;;;1.20;1.00;;;20.00;99.90;;;;;;5071979;28;20663;-75
2021/07/15 06:25:44;;;;;;;1.05;0.80;;;20.00;99.90;;;;;;5071350;28;20211;-76
2021/07/15 06:28:11;;;;;;;1.98;0.95;;;19.90;99.90;;;;;;5071412;28;20187;-76
2021/07/15 06:30:39;;;;;;;1.40;1.27;;;19.90;99.90;;;;;;5066177;28;20549;-76
2021/07/15 06:33:06;;;;;;;1.20;1.00;;;19.90;99.90;;;;;;5070666;28;20598;-75
2021/07/15 06:35:40;;;;;;;1.10;1.00;;;19.90;99.90;;;;;;5073160;28;20205;-75
2021/07/15 06:38:07;;;;;;;1.20;0.98;;;19.90;99.90;;;;;;5073362;28;20199;-75
2021/07/15 06:40:34;;;;;;;1.05;0.90;;;19.90;99.90;;;;;;5075060;28;20569;-76
2021/07/15 06:43:00;;;;;;;3.95;1.10;;;19.90;99.90;;;;;;5075097;28;20202;-75
2021/07/15 06:45:27;;;;;;;1.13;0.80;;;19.90;99.90;;;;;;5075226;28;20202;-75
2021/07/15 06:47:55;;;;;;;1.23;0.98;;;19.90;99.90;;;;;;5073054;28;20630;-75
2021/07/15 06:50:22;;;;;;;1.20;0.85;;;20.00;99.90;;;;;;5062509;28;20284;-75
2021/07/15 06:52:48;;;;;;;1.00;0.80;;;20.00;99.90;;;;;;5062949;28;20708;-76
2021/07/15 06:55:15;;;;;;;1.15;0.93;;;20.00;99.90;;;;;;5075304;28;20202;-75
2021/07/15 06:57:42;;;;;;;1.10;0.90;;;20.00;99.90;;;;;;5075132;28;20190;-75
2021/07/15 07:00:11;;;;;;;2.92;1.05;;;20.00;99.90;;;;;;5073572;28;20198;-75
2021/07/15 07:02:39;;;;;;;1.20;1.00;;;20.00;99.90;;;;;;5075127;28;20707;-74
2021/07/15 07:05:08;;;;;;;1.23;1.00;;;20.00;99.90;;;;;;5074754;28;20615;-75
2021/07/15 07:07:36;;;;;;;1.30;1.13;;;20.00;99.90;;;;;;5073367;28;20246;-74
2021/07/15 07:10:05;;;;;;;1.20;1.00;;;20.00;99.90;;;;;;5073470;28;20195;-74
2021/07/15 07:12:31;;;;;;;1.48;1.35;;;20.00;99.90;;;;;;5073873;28;20264;-76
2021/07/15 07:14:58;;;;;;;1.25;1.15;;;20.10;99.90;;;;;;5070950;28;20195;-76
2021/07/15 07:17:25;;;;;;;1.50;1.15;;;20.10;99.90;;;;;;5070707;28;20574;-75
2021/07/15 07:19:52;;;;;;;1.20;1.00;;;20.10;99.90;;;;;;5071674;28;20194;-75
2021/07/15 07:22:20;;;;;;;1.00;0.80;;;20.10;99.90;;;;;;5072860;28;20203;-75
2021/07/15 07:24:46;;;;;;;1.20;0.98;;;20.10;99.90;;;;;;5072638;28;20187;-75
2021/07/15 07:27:13;;;;;;;1.10;0.90;;;20.10;99.90;;;;;;5073462;28;20214;-75
2021/07/15 07:29:40;;;;;;;1.20;0.90;;;20.10;99.90;;;;;;5070669;28;20199;-76
2021/07/15 07:32:07;;;;;;;1.00;0.80;;;20.10;99.90;;;;;;5070132;28;20326;-76
2021/07/15 07:34:34;;;;;;;1.00;0.80;;;20.10;99.90;;;;;;5060736;28;20257;-74
2021/07/15 07:37:01;;;;;;;1.10;0.90;;;20.10;99.90;;;;;;5053591;28;20203;-74
2021/07/15 07:39:29;;;;;;;1.00;0.80;;;20.10;99.90;;;;;;5066335;28;20585;-74
2021/07/15 07:41:56;;;;;;;1.10;0.90;;;20.10;99.90;;;;;;5072905;28;20230;-74
2021/07/15 07:44:23;;;;;;;1.13;0.90;;;20.10;99.90;;;;;;5063749;28;20203;-72
2021/07/15 07:46:50;;;;;;;1.27;1.17;;;20.10;99.90;;;;;;5053333;28;20230;-77
2021/07/15 07:49:17;;;;;;;2.17;0.90;;;20.10;99.90;;;;;;5071762;28;20202;-77
2021/07/15 07:51:43;;;;;;;1.27;0.80;;;20.10;99.90;;;;;;5056365;28;20195;-76
2021/07/15 07:54:10;;;;;;;1.10;1.00;;;20.10;99.90;;;;;;5072897;28;20198;-79
2021/07/15 07:56:38;;;;;;;1.40;1.00;;;20.10;99.90;;;;;;5072817;28;20194;-75
2021/07/15 07:59:05;;;;;;;1.80;1.10;;;20.10;99.90;;;;;;5069073;28;20559;-75
2021/07/15 08:01:34;;;;;;;1.13;0.88;;;20.20;99.90;;;;;;5073523;28;20199;-75
2021/07/15 08:04:02;;;;;;;1.63;1.00;;;20.20;99.90;;;;;;5073839;28;20201;-74
2021/07/15 08:06:33;;;;;;;1.52;1.10;;;20.20;99.90;;;;;;5073813;28;20215;-75
2021/07/15 08:09:00;;;;;;;2.65;0.90;;;20.20;99.90;;;;;;5073322;28;20600;-75
2021/07/15 08:11:28;;;;;;;2.22;1.30;;;20.20;99.90;;;;;;5073019;28;20194;-76
2021/07/15 08:13:56;;;;;;;2.47;1.25;;;20.20;99.90;;;;;;5068822;28;20250;-76
2021/07/15 08:16:22;;;;;;;1.30;1.17;;;20.20;99.90;;;;;;5074201;28;20209;-77
2021/07/15 08:18:49;;;;;;;2.60;1.40;;;20.20;99.90;;;;;;5073650;28;20206;-76
2021/07/15 08:21:19;;;;;;;2.33;1.38;;;20.30;99.90;;;;;;5072611;28;20600;-75
2021/07/15 08:23:46;;;;;;;2.22;1.25;;;20.30;99.90;;;;;;5073827;28;20199;-76
2021/07/15 08:26:13;;;;;;;2.55;1.23;;;20.40;99.90;;;;;;5072422;28;20649;-76
2021/07/15 08:28:40;;;;;;;1.55;1.35;;;20.40;99.90;;;;;;5054642;28;20191;-76
2021/07/15 08:31:08;;;;;;;3.28;1.40;;;20.50;99.90;;;;;;5067904;28;20206;-76
2021/07/15 08:33:35;;;;;;;1.20;1.00;;;20.40;99.90;;;;;;5065992;28;20199;-75
2021/07/15 08:36:02;;;;;;;1.95;1.08;;;20.40;99.90;;;;;;5070590;28;20195;-77
2021/07/15 08:38:28;;;;;;;1.38;1.27;;;20.50;99.90;;;;;;5072320;28;20198;-76
2021/07/15 08:40:55;;;;;;;1.50;1.38;;;20.50;99.90;;;;;;5071314;28;20546;-76
2021/07/15 08:43:23;;;;;;;1.13;1.00;;;20.50;99.90;;;;;;5060969;28;20191;-76
2021/07/15 08:45:51;;;;;;;1.55;1.20;;;20.60;99.90;;;;;;5068947;28;20198;-76
2021/07/15 08:48:20;;;;;;;1.48;1.35;;;20.60;99.90;;;;;;5066465;28;20222;-76
2021/07/15 08:50:47;;;;;;;2.38;1.10;;;20.70;99.90;;;;;;5070706;28;20234;-76
2021/07/15 08:53:17;;;;;;;2.17;1.30;;;20.70;99.90;;;;;;5069597;28;20191;-77
2021/07/15 08:58:29;;;;;;;1.13;1.00;;;20.80;99.90;;;;;;5072908;28;20194;-77
2021/07/15 09:00:55;;;;;;;1.40;1.05;;;20.90;99.90;;;;;;5073122;28;20277;-78
2021/07/15 09:03:23;;;;;;;1.35;1.17;;;21.00;99.90;;;;;;5073016;28;20202;-77
2021/07/15 09:05:50;;;;;;;1.20;1.10;;;21.10;99.90;;;;;;5073514;28;20198;-77
2021/07/15 09:08:17;;;;;;;1.40;0.90;;;21.20;99.90;;;;;;5071776;28;20222;-77
2021/07/15 09:10:43;;;;;;;1.20;1.10;;;21.30;99.90;;;;;;5071322;28;20286;-78
2021/07/15 09:13:11;;;;;;;1.77;1.40;;;21.30;99.90;;;;;;5070470;28;20653;-77
2021/07/15 09:15:41;;;;;;;1.35;1.10;;;21.40;99.90;;;;;;5071778;28;20191;-77
2021/07/15 09:18:12;;;;;;;1.40;0.90;;;21.50;99.90;;;;;;5072966;28;20210;-77
2021/07/15 09:20:41;;;;;;;1.48;1.20;;;21.60;99.90;;;;;;5066871;28;20457;-77
2021/07/15 09:23:10;;;;;;;1.47;1.37;;;21.70;99.90;;;;;;5072911;28;20195;-77
2021/07/15 09:25:55;;;;;;;2.40;2.20;;;21.90;99.90;;;;;;5072559;28;20448;-82
2021/07/15 09:28:31;;;;;;;2.80;1.73;;;22.00;99.90;;;;;;5072000;28;20481;-77
2021/07/15 09:31:12;;;;;;;1.60;1.20;;;22.10;99.90;;;;;;5076126;28;20449;-77
2021/07/15 09:33:40;;;;;;;3.30;1.70;;;22.20;99.90;;;;;;5076578;28;20880;-77
2021/07/15 09:36:14;;;;;;;2.20;1.53;;;22.30;99.90;;;;;;5077034;28;20445;-77
2021/07/15 09:38:41;;;;;;;2.43;1.40;;;22.40;99.90;;;;;;5069625;28;20911;-77
2021/07/15 09:41:08;;;;;;;3.87;1.40;;;22.50;99.90;;;;;;5074507;28;20477;-76
2021/07/15 09:43:37;;;;;;;1.50;1.40;;;22.50;99.90;;;;;;5077698;28;20483;-77
2021/07/15 09:46:16;;;;;;;3.23;1.70;;;22.50;99.90;;;;;;5073314;28;20509;-77
2021/07/15 09:48:45;;;;;;;1.70;1.50;;;22.60;99.90;;;;;;5078331;28;20480;-77
2021/07/15 09:51:15;;;;;;;1.90;1.30;;;22.60;99.90;;;;;;5077066;28;20491;-75
2021/07/15 09:53:43;;;;;;;2.07;1.70;;;22.60;99.90;;;;;;5074953;28;20568;-77
2021/07/15 09:56:11;;;;;;;1.70;1.60;;;22.70;99.90;;;;;;5075269;28;20451;-77
2021/07/15 09:58:39;;;;;;;2.40;2.20;;;22.70;99.90;;;;;;5074811;28;20531;-77
2021/07/15 10:01:08;;;;;;;1.87;1.50;;;22.70;99.90;;;;;;5075319;28;20461;-77
2021/07/15 10:03:37;;;;;;;1.97;1.43;;;22.70;99.90;;;;;;5074963;28;20527;-77
2021/07/15 10:06:04;;;;;;;2.03;1.83;;;22.60;99.90;;;;;;5074422;28;20441;-77
2021/07/15 10:08:34;;;;;;;2.00;1.80;;;22.60;99.90;;;;;;5075670;28;21029;-77
2021/07/15 10:11:18;;;;;;;2.10;1.90;;;22.60;99.90;;;;;;5076588;28;20448;-77
2021/07/15 10:13:47;;;;;;;2.13;1.30;;;22.50;99.90;;;;;;5069543;28;20456;-76
2021/07/15 10:16:15;;;;;;;2.03;1.77;;;22.50;99.90;;;;;;5072723;28;20793;-76
2021/07/15 10:18:44;;;;;;;2.47;2.27;;;22.40;99.90;;;;;;5079478;28;20448;-75
2021/07/15 10:21:13;;;;;;;2.20;1.50;;;22.40;99.90;;;;;;5077648;28;20456;-73
2021/07/15 10:23:44;;;;;;;3.40;1.97;;;22.30;99.90;;;;;;5088669;28;20512;-85
2021/07/15 10:26:13;;;;;;;2.20;1.70;;;22.30;99.90;;;;;;5082739;28;20451;-76
2021/07/15 10:28:43;;;;;;;2.57;2.07;;;22.30;99.90;;;;;;5067970;28;20485;-76
2021/07/15 10:31:10;;;;;;;1.70;1.50;;;22.20;99.90;;;;;;5058446;28;20453;-75
2021/07/15 10:33:37;;;;;;;2.10;1.60;;;22.20;99.90;;;;;;5071404;28;20511;-74
2021/07/15 10:36:06;;;;;;;1.30;1.20;;;22.20;99.90;;;;;;5074586;28;20479;-76
2021/07/15 10:38:38;;;;;;;2.53;1.63;;;22.20;99.90;;;;;;5067723;28;20911;-77
2021/07/15 10:41:15;;;;;;;1.33;1.10;;;22.10;99.90;;;;;;5085691;28;20486;-83
2021/07/15 10:43:42;;;;;;;1.70;1.20;;;22.10;99.90;;;;;;5091231;28;20552;-79
2021/07/15 10:46:10;;;;;;;1.57;1.33;;;22.10;99.90;;;;;;5084758;28;20792;-75
2021/07/15 10:48:38;;;;;;;1.50;1.40;;;22.10;99.90;;;;;;5080382;28;20523;-77
2021/07/15 10:51:06;;;;;;;1.93;1.73;;;22.10;99.90;;;;;;5077704;28;20485;-75
2021/07/15 10:53:36;;;;;;;2.07;1.87;;;22.10;99.90;;;;;;5067211;28;20807;-77
2021/07/15 10:56:04;;;;;;;1.77;1.40;;;22.20;99.90;;;;;;5064444;28;20482;-76
2021/07/15 10:58:46;;;;;;;1.90;1.67;;;22.20;99.90;;;;;;5065397;28;20452;-84
2021/07/15 11:01:30;;;;;;;1.52;1.42;;;22.20;99.90;;;;;;5068952;28;20465;-75
2021/07/15 11:04:06;;;;;;;1.87;1.50;;;22.20;99.90;;;;;;5065917;28;20191;-79
2021/07/15 11:06:37;;;;;;;1.87;1.67;;;22.20;99.90;;;;;;5066365;28;20526;-79
2021/07/15 11:09:04;;;;;;;2.17;1.67;;;22.20;99.90;;;;;;5067046;28;20484;-74
2021/07/15 11:11:38;;;;;;;1.30;1.20;;;22.30;99.90;;;;;;5070342;28;20954;-81
2021/07/15 11:14:08;;;;;;;1.70;1.30;;;22.20;99.90;;;;;;5070395;28;20456;-73
2021/07/15 11:16:51;;;;;;;2.43;1.87;;;22.30;99.90;;;;;;5073076;28;20464;-80
2021/07/15 11:19:55;;;;;;;2.30;1.63;;;22.30;99.90;;;;;;5072865;28;20464;-85
2021/07/15 11:22:38;;;;;;;2.20;1.67;;;22.30;99.90;;;;;;5068703;28;20547;-78
2021/07/15 11:25:06;;;;;;;1.50;1.20;;;22.30;99.90;;;;;;5077467;28;20463;-74
2021/07/15 11:30:52;;;;;;;2.37;1.70;;;22.30;99.90;;;;;;5073232;28;20468;-76
2021/07/15 11:33:40;;;;;;;1.83;1.50;;;22.30;99.90;;;;;;5082535;28;20468;-74
2021/07/15 11:36:12;;;;;;;1.67;1.57;;;22.40;99.90;;;;;;5074681;28;20556;-76
2021/07/15 11:38:41;;;;;;;1.67;1.57;;;22.40;99.90;;;;;;5076755;28;20445;-77
2021/07/15 11:41:10;;;;;;;1.27;1.17;;;22.50;99.90;;;;;;5077956;28;20496;-78
2021/07/15 11:43:51;;;;;;;1.60;1.50;;;22.50;99.90;;;;;;5078909;28;20477;-77
2021/07/15 11:46:21;;;;;;;1.60;1.30;;;22.50;99.90;;;;;;5079952;28;20499;-77
2021/07/15 11:49:08;;;;;;;1.30;1.20;;;22.60;99.90;;;;;;5081188;28;20487;-76
2021/07/15 11:51:41;;;;;;;1.60;1.50;;;22.60;99.90;;;;;;5080688;28;20446;-77
2021/07/15 11:54:26;;;;;;;1.40;1.30;;;22.60;99.90;;;;;;5078892;28;20514;-77
2021/07/15 11:56:59;;;;;;;1.73;1.63;;;22.60;99.90;;;;;;5080538;28;20445;-77
2021/07/15 11:59:34;;;;;;;2.07;1.87;;;22.60;99.90;;;;;;5079750;28;20520;-78
2021/07/15 12:02:08;;;;;;;1.90;1.77;;;22.70;99.90;;;;;;5079031;28;20504;-77
2021/07/15 12:05:22;;;;;;;1.70;1.53;;;22.70;99.90;;;;;;5079989;28;20454;-77
2021/07/15 12:07:52;;;;;;;2.70;1.70;;;22.70;99.90;;;;;;5077122;28;20473;-78
2021/07/15 12:10:22;;;;;;;1.53;1.43;;;22.70;99.90;;;;;;5075845;28;20460;-78
2021/07/15 12:12:50;;;;;;;2.43;1.80;;;22.70;99.90;;;;;;5076673;28;20482;-78
2021/07/15 12:15:20;;;;;;;1.50;1.30;;;22.80;99.90;;;;;;5063899;28;20522;-77
2021/07/15 12:17:53;;;;;;;1.60;1.47;;;22.80;99.90;;;;;;5075237;28;20453;-76
2021/07/15 12:20:22;;;;;;;1.60;1.50;;;22.80;99.90;;;;;;5056590;28;20438;-78
2021/07/15 12:22:58;;;;;;;1.50;1.40;;;22.80;99.90;;;;;;5076600;28;20834;-78
2021/07/15 12:25:28;;;;;;;1.70;1.60;;;22.90;99.90;;;;;;5075159;28;20935;-78
2021/07/15 12:27:57;;;;;;;1.80;1.70;;;22.90;99.90;;;;;;5076143;28;20839;-77
2021/07/15 12:30:38;;;;;;;1.20;1.10;;;22.90;99.90;;;;;;5076013;28;20472;-77
2021/07/15 12:33:08;;;;;;;4.70;1.57;;;23.00;99.90;;;;;;5071932;28;20455;-77
2021/07/15 12:35:36;;;;;;;1.40;1.23;;;23.00;99.90;;;;;;5074990;28;20457;-80
2021/07/15 12:38:21;;;;;;;1.27;1.17;;;23.00;99.90;;;;;;5069285;28;20468;-79
2021/07/15 12:40:48;;;;;;;1.40;1.30;;;23.00;99.90;;;;;;5067804;28;20499;-78
2021/07/15 12:43:17;;;;;;;1.30;1.17;;;23.10;99.90;;;;;;5073237;28;20464;-79
2021/07/15 12:45:47;;;;;;;1.77;1.67;;;23.10;99.90;;;;;;5069951;28;20468;-79
2021/07/15 12:48:17;;;;;;;1.87;1.73;;;23.10;99.90;;;;;;5070695;28;20488;-78
2021/07/15 12:50:45;;;;;;;2.20;2.00;;;23.10;99.90;;;;;;5072910;28;20908;-77
2021/07/15 12:53:20;;;;;;;2.00;1.90;;;23.00;99.90;;;;;;5072781;28;20453;-77
2021/07/15 12:55:47;;;;;;;2.30;2.10;;;23.10;99.90;;;;;;5070087;28;20496;-79
2021/07/15 12:58:15;;;;;;;4.40;1.73;;;23.10;99.90;;;;;;5073272;28;20444;-80
2021/07/15 13:00:42;;;;;;;2.40;1.93;;;23.10;99.90;;;;;;5072210;28;20536;-76
2021/07/15 13:03:09;;;;;;;6.03;2.33;;;23.20;99.90;;;;;;5063658;28;20469;-80
2021/07/15 13:05:40;;;;;;;1.70;1.50;;;23.20;99.90;;;;;;5065339;28;20947;-78